createdAt,value
2023-04-28T00:01:21.669Z,8.20
2023-04-28T00:03:49.882Z,6.07
2023-04-28T00:06:18.101Z,3.40
2023-04-28T00:08:47.560Z,3.30
2023-04-28T00:11:15.641Z,3.07
2023-04-28T00:13:43.692Z,2.60
2023-04-28T00:16:11.819Z,4.50
2023-04-28T00:18:40.066Z,3.07
2023-04-28T00:21:08.656Z,3.43
2023-04-28T00:23:36.831Z,3.33
2023-04-28T00:26:06.349Z,4.30
2023-04-28T00:28:35.078Z,3.30
2023-04-28T00:31:03.857Z,4.07
2023-04-28T00:33:31.969Z,4.00
2023-04-28T00:36:01.808Z,2.83
2023-04-28T00:38:30.158Z,3.80
2023-04-28T00:40:58.369Z,5.90
2023-04-28T00:43:28.014Z,5.30
2023-04-28T00:45:56.460Z,2.90
2023-04-28T00:48:24.855Z,3.40
2023-04-28T00:50:53.102Z,4.20
2023-04-28T00:53:21.365Z,5.73
2023-04-28T00:55:50.266Z,4.07
2023-04-28T00:58:18.429Z,3.70
2023-04-28T01:00:48.011Z,2.93
2023-04-28T01:03:16.945Z,3.20
2023-04-28T01:05:45.414Z,5.13
2023-04-28T01:08:13.636Z,5.10
2023-04-28T01:10:45.748Z,3.93
2023-04-28T01:13:24.679Z,3.70
2023-04-28T01:15:54.637Z,4.70
2023-04-28T01:18:23.112Z,3.27
2023-04-28T01:20:51.623Z,3.50
2023-04-28T01:23:19.738Z,5.63
2023-04-28T01:25:49.209Z,3.67
2023-04-28T01:28:17.659Z,3.13
2023-04-28T01:30:46.187Z,4.30
2023-04-28T01:33:14.345Z,2.00
2023-04-28T01:35:43.246Z,3.80
2023-04-28T01:38:11.913Z,2.83
2023-04-28T01:40:40.189Z,3.53
2023-04-28T01:43:10.007Z,3.67
2023-04-28T01:45:38.163Z,4.20
2023-04-28T01:48:06.838Z,3.97
2023-04-28T01:50:34.970Z,3.90
2023-04-28T01:53:05.891Z,3.87
2023-04-28T01:55:34.050Z,3.47
2023-04-28T01:58:02.305Z,4.57
2023-04-28T02:00:33.467Z,7.20
2023-04-28T02:03:01.657Z,3.20
2023-04-28T02:05:30.047Z,2.23
2023-04-28T02:07:58.194Z,7.30
2023-04-28T02:10:26.878Z,8.23
2023-04-28T02:12:56.088Z,3.40
2023-04-28T02:15:24.215Z,3.67
2023-04-28T02:17:53.759Z,4.50
2023-04-28T02:20:21.961Z,3.13
2023-04-28T02:22:50.120Z,3.20
2023-04-28T02:25:18.519Z,3.40
2023-04-28T02:27:46.729Z,4.77
2023-04-28T02:30:15.131Z,3.40
2023-04-28T02:32:43.434Z,6.27
2023-04-28T02:35:12.918Z,2.60
2023-04-28T02:37:42.334Z,3.10
2023-04-28T02:40:11.230Z,4.20
2023-04-28T02:42:39.391Z,4.33
2023-04-28T02:45:08.466Z,3.53
2023-04-28T02:47:37.088Z,5.70
2023-04-28T02:50:05.817Z,2.50
2023-04-28T02:52:36.840Z,3.27
2023-04-28T02:55:05.241Z,3.93
2023-04-28T02:57:33.724Z,3.73
2023-04-28T03:00:02.271Z,2.90
2023-04-28T03:02:38.093Z,3.60
2023-04-28T03:05:06.981Z,5.87
2023-04-28T03:07:35.141Z,3.40
2023-04-28T03:10:04.836Z,5.13
2023-04-28T03:12:33.232Z,3.87
2023-04-28T03:15:01.899Z,4.63
2023-04-28T03:17:30.157Z,4.00
2023-04-28T03:19:58.437Z,6.30
2023-04-28T03:22:26.648Z,7.50
2023-04-28T03:24:54.837Z,3.53
2023-04-28T03:27:24.876Z,3.30
2023-04-28T03:29:55.248Z,5.93
2023-04-28T03:32:23.598Z,3.73
2023-04-28T03:34:52.123Z,4.30
2023-04-28T03:37:20.330Z,8.17
2023-04-28T03:39:48.607Z,4.53
2023-04-28T03:42:16.809Z,4.63
2023-04-28T03:45:11.326Z,6.70
2023-04-28T03:47:40.065Z,3.83
2023-04-28T03:50:09.396Z,9.73
2023-04-28T03:52:37.586Z,4.90
2023-04-28T03:55:06.325Z,3.73
2023-04-28T03:57:34.791Z,4.50
2023-04-28T04:00:04.007Z,3.77
2023-04-28T04:02:34.400Z,2.80
2023-04-28T04:05:02.822Z,3.43
2023-04-28T04:07:32.059Z,3.93
2023-04-28T04:10:01.882Z,3.80
2023-04-28T04:12:32.006Z,5.13
2023-04-28T04:15:00.717Z,2.93
2023-04-28T04:17:29.179Z,2.90
2023-04-28T04:19:58.744Z,3.10
2023-04-28T04:22:28.410Z,3.13
2023-04-28T04:24:56.702Z,3.17
2023-04-28T04:27:24.853Z,3.27
2023-04-28T04:29:53.366Z,3.87
2023-04-28T04:32:22.138Z,4.93
2023-04-28T04:34:51.240Z,4.17
2023-04-28T04:37:20.861Z,4.50
2023-04-28T04:40:01.581Z,3.40
2023-04-28T04:42:34.363Z,4.30
2023-04-28T04:45:22.974Z,8.07
2023-04-28T04:47:53.666Z,4.20
2023-04-28T04:50:22.413Z,4.83
2023-04-28T04:52:54.503Z,5.60
2023-04-28T04:55:22.724Z,3.40
2023-04-28T04:57:50.992Z,3.77
2023-04-28T05:00:42.413Z,5.57
2023-04-28T05:03:12.415Z,8.40
2023-04-28T05:05:43.211Z,4.33
2023-04-28T05:08:32.772Z,8.43
2023-04-28T05:11:01.044Z,5.83
2023-04-28T05:13:29.356Z,5.77
2023-04-28T05:16:02.512Z,3.23
2023-04-28T05:18:47.064Z,4.80
2023-04-28T05:21:16.435Z,5.50
2023-04-28T05:23:46.118Z,3.67
2023-04-28T05:26:14.420Z,3.30
2023-04-28T05:28:43.370Z,4.67
2023-04-28T05:31:11.564Z,3.50
2023-04-28T05:33:39.708Z,3.00
2023-04-28T05:36:08.488Z,3.87
2023-04-28T05:38:37.166Z,2.70
2023-04-28T05:41:07.154Z,2.53
2023-04-28T05:43:36.043Z,7.10
2023-04-28T05:46:09.691Z,3.73
2023-04-28T05:48:43.119Z,4.57
2023-04-28T05:51:12.476Z,3.53
2023-04-28T05:53:40.740Z,4.50
2023-04-28T05:56:10.838Z,3.73
2023-04-28T05:58:39.445Z,4.47
2023-04-28T06:01:08.196Z,6.00
2023-04-28T06:03:37.465Z,4.40
2023-04-28T06:06:09.651Z,7.40
2023-04-28T06:08:38.817Z,3.90
2023-04-28T06:11:07.354Z,7.00
2023-04-28T06:13:37.302Z,7.63
2023-04-28T06:16:06.525Z,5.20
2023-04-28T06:18:35.805Z,6.13
2023-04-28T06:21:05.433Z,4.30
2023-04-28T06:23:33.593Z,2.80
2023-04-28T06:26:01.820Z,7.00
2023-04-28T06:28:30.775Z,3.70
2023-04-28T06:31:00.616Z,6.23
2023-04-28T06:33:28.749Z,4.13
2023-04-28T06:35:57.036Z,5.63
2023-04-28T06:38:25.384Z,3.60
2023-04-28T06:40:53.532Z,5.53
2023-04-28T06:43:21.986Z,2.97
2023-04-28T06:46:14.631Z,3.37
2023-04-28T06:48:44.224Z,4.90
2023-04-28T06:51:12.529Z,7.63
2023-04-28T06:53:40.801Z,5.40
2023-04-28T06:56:11.396Z,5.30
2023-04-28T06:58:40.092Z,12.30
2023-04-28T07:01:08.287Z,14.43
2023-04-28T07:03:38.962Z,5.13
2023-04-28T07:06:07.617Z,11.17
2023-04-28T07:08:36.555Z,4.30
2023-04-28T07:11:05.167Z,4.83
2023-04-28T07:13:33.489Z,6.07
2023-04-28T07:16:01.751Z,5.07
2023-04-28T07:18:29.991Z,4.97
2023-04-28T07:20:59.620Z,5.73
2023-04-28T07:23:27.884Z,6.33
2023-04-28T07:25:56.166Z,4.50
2023-04-28T07:28:24.376Z,3.47
2023-04-28T07:30:52.579Z,3.80
2023-04-28T07:33:20.958Z,6.33
2023-04-28T07:35:49.696Z,3.60
2023-04-28T07:38:20.523Z,7.03
2023-04-28T07:40:48.831Z,6.70
2023-04-28T07:43:16.919Z,7.10
2023-04-28T07:45:49.044Z,8.40
2023-04-28T07:48:17.624Z,4.47
2023-04-28T07:50:45.923Z,3.73
2023-04-28T07:53:14.223Z,5.23
2023-04-28T07:55:44.767Z,4.97
2023-04-28T07:58:13.210Z,4.10
2023-04-28T08:00:41.384Z,3.60
2023-04-28T08:03:09.684Z,4.90
2023-04-28T08:05:39.672Z,4.50
2023-04-28T08:08:07.866Z,4.30
2023-04-28T08:10:36.067Z,5.13
2023-04-28T08:13:05.623Z,4.03
2023-04-28T08:15:33.815Z,5.87
2023-04-28T08:18:02.150Z,3.83
2023-04-28T08:20:32.475Z,4.30
2023-04-28T08:23:00.965Z,2.67
2023-04-28T08:25:29.143Z,2.83
2023-04-28T08:27:58.766Z,3.13
2023-04-28T08:30:28.334Z,3.87
2023-04-28T08:32:56.651Z,4.30
2023-04-28T08:35:25.017Z,2.73
2023-04-28T08:37:53.820Z,3.40
2023-04-28T08:40:22.232Z,3.27
2023-04-28T08:42:50.639Z,2.90
2023-04-28T08:45:18.794Z,3.43
2023-04-28T08:47:53.114Z,4.27
2023-04-28T08:50:23.536Z,3.10
2023-04-28T08:52:54.238Z,3.90
2023-04-28T08:55:22.702Z,3.53
2023-04-28T08:57:52.675Z,3.10
2023-04-28T09:00:20.794Z,2.93
2023-04-28T09:02:53.035Z,3.20
2023-04-28T09:05:22.130Z,3.40
2023-04-28T09:07:52.053Z,5.23
2023-04-28T09:10:22.180Z,3.70
2023-04-28T09:12:54.207Z,6.93
2023-04-28T09:15:33.186Z,3.97
2023-04-28T09:18:04.143Z,8.13
2023-04-28T09:20:33.314Z,3.60
2023-04-28T09:23:18.490Z,3.43
2023-04-28T09:26:01.356Z,4.20
2023-04-28T09:28:29.564Z,3.27
2023-04-28T09:30:57.729Z,4.40
2023-04-28T09:33:27.810Z,4.70
2023-04-28T09:35:56.212Z,3.93
2023-04-28T09:38:24.906Z,4.77
2023-04-28T09:40:58.348Z,6.03
2023-04-28T09:43:28.461Z,5.90
2023-04-28T09:45:57.447Z,5.13
2023-04-28T09:48:32.381Z,3.50
2023-04-28T09:51:02.037Z,4.10
2023-04-28T09:53:31.251Z,3.80
2023-04-28T09:56:01.796Z,3.60
2023-04-28T09:58:32.276Z,3.90
2023-04-28T10:01:01.992Z,3.90
2023-04-28T10:03:32.530Z,4.23
2023-04-28T10:06:01.208Z,2.90
2023-04-28T10:08:29.638Z,3.00
2023-04-28T10:10:58.620Z,3.60
2023-04-28T10:13:27.088Z,2.93
2023-04-28T10:15:58.316Z,3.30
2023-04-28T10:18:27.081Z,3.70
2023-04-28T10:20:59.588Z,2.90
2023-04-28T10:24:00.487Z,3.50
2023-04-28T10:27:03.426Z,2.40
2023-04-28T10:29:33.600Z,3.47
2023-04-28T10:32:33.127Z,4.00
2023-04-28T10:35:36.416Z,2.93
2023-04-28T10:38:10.987Z,5.97
2023-04-28T10:40:40.850Z,4.67
2023-04-28T10:43:10.062Z,8.00
2023-04-28T10:46:02.109Z,3.13
2023-04-28T10:48:56.291Z,2.97
2023-04-28T10:51:31.924Z,4.67
2023-04-28T10:54:12.350Z,3.93
2023-04-28T10:56:42.064Z,3.70
2023-04-28T10:59:28.559Z,4.03
2023-04-28T11:01:56.887Z,1.90
2023-04-28T11:04:25.555Z,1.70
2023-04-28T11:07:13.765Z,3.10
2023-04-28T11:09:53.753Z,2.63
2023-04-28T11:12:22.303Z,5.83
2023-04-28T11:14:50.369Z,2.33
2023-04-28T11:17:19.588Z,2.30
2023-04-28T11:19:48.716Z,1.80
2023-04-28T11:22:18.716Z,1.70
2023-04-28T11:24:58.943Z,2.73
2023-04-28T11:27:28.143Z,2.00
2023-04-28T11:29:56.790Z,2.60
2023-04-28T11:32:29.763Z,2.63
2023-04-28T11:34:58.766Z,1.40
2023-04-28T11:37:27.457Z,1.93
2023-04-28T11:39:57.494Z,1.50
2023-04-28T11:42:28.230Z,2.37
2023-04-28T11:44:56.459Z,3.93
2023-04-28T11:47:32.565Z,4.20
2023-04-28T11:50:01.375Z,3.60
2023-04-28T11:52:29.682Z,2.80
2023-04-28T11:55:02.423Z,1.93
2023-04-28T11:57:30.958Z,2.90
2023-04-28T12:00:14.936Z,2.70
2023-04-28T12:02:43.979Z,1.60
2023-04-28T12:05:12.938Z,4.67
2023-04-28T12:07:45.664Z,1.60
2023-04-28T12:10:21.049Z,1.83
2023-04-28T12:12:52.525Z,2.23
2023-04-28T12:15:22.910Z,1.90
2023-04-28T12:17:52.018Z,1.70
2023-04-28T12:20:36.460Z,2.30
2023-04-28T12:23:05.494Z,1.30
2023-04-28T12:25:43.992Z,1.87
2023-04-28T12:28:12.117Z,4.27
2023-04-28T12:30:42.744Z,1.40
2023-04-28T12:33:24.686Z,5.70
2023-04-28T12:35:53.998Z,1.67
2023-04-28T12:38:22.586Z,1.60
2023-04-28T12:40:52.404Z,4.43
2023-04-28T12:43:23.099Z,1.57
2023-04-28T12:45:53.564Z,3.07
2023-04-28T12:48:23.748Z,2.07
2023-04-28T12:50:52.075Z,1.70
2023-04-28T12:53:20.315Z,1.77
2023-04-28T12:55:48.909Z,2.20
2023-04-28T12:58:18.489Z,3.57
2023-04-28T13:00:46.619Z,1.70
2023-04-28T13:03:16.001Z,3.67
2023-04-28T13:05:44.451Z,2.63
2023-04-28T13:08:12.935Z,2.97
2023-04-28T13:10:42.068Z,2.63
2023-04-28T13:13:10.424Z,2.50
2023-04-28T13:15:40.424Z,2.70
2023-04-28T13:18:08.817Z,1.77
2023-04-28T13:20:37.265Z,2.27
2023-04-28T13:23:05.624Z,1.70
2023-04-28T13:25:34.073Z,3.83
2023-04-28T13:28:02.368Z,2.90
2023-04-28T13:30:30.516Z,2.20
2023-04-28T13:33:00.128Z,1.70
2023-04-28T13:35:28.569Z,3.43
2023-04-28T13:38:02.116Z,3.40
2023-04-28T13:40:30.609Z,2.27
2023-04-28T13:42:58.748Z,2.00
2023-04-28T13:45:28.723Z,1.87
2023-04-28T13:47:57.025Z,4.07
2023-04-28T13:50:26.944Z,4.83
2023-04-28T13:52:55.222Z,2.90
2023-04-28T13:55:28.276Z,1.97
2023-04-28T13:57:56.740Z,2.60
2023-04-28T14:00:25.435Z,3.87
2023-04-28T14:02:53.793Z,3.20
2023-04-28T14:05:22.286Z,3.93
2023-04-28T14:07:51.907Z,3.00
2023-04-28T14:10:20.463Z,4.60
2023-04-28T14:12:49.132Z,3.60
2023-04-28T14:15:17.962Z,4.97
2023-04-28T14:17:46.102Z,5.40
2023-04-28T14:20:14.649Z,5.03
2023-04-28T14:22:42.766Z,5.40
2023-04-28T14:25:12.740Z,7.47
2023-04-28T14:27:41.036Z,3.60
2023-04-28T14:30:10.355Z,3.47
2023-04-28T14:32:40.035Z,5.40
2023-04-28T14:35:09.611Z,4.20
2023-04-28T14:37:38.356Z,3.80
2023-04-28T14:40:08.008Z,7.60
2023-04-28T14:42:38.275Z,7.90
2023-04-28T14:45:08.794Z,4.90
2023-04-28T14:47:40.431Z,3.63
2023-04-28T14:50:11.432Z,4.30
2023-04-28T14:52:42.477Z,5.07
2023-04-28T14:55:11.333Z,5.13
2023-04-28T14:57:40.893Z,4.00
2023-04-28T15:00:10.086Z,4.80
2023-04-28T15:02:38.862Z,11.47
2023-04-28T15:05:08.043Z,3.50
2023-04-28T15:07:36.382Z,4.67
2023-04-28T15:10:04.657Z,3.93
2023-04-28T15:12:34.490Z,7.60
2023-04-28T15:15:04.112Z,5.20
2023-04-28T15:17:32.478Z,6.27
2023-04-28T15:20:00.833Z,4.00
2023-04-28T15:22:29.104Z,3.63
2023-04-28T15:24:57.430Z,9.70
2023-04-28T15:27:25.640Z,6.53
2023-04-28T15:29:54.079Z,5.40
2023-04-28T15:32:23.960Z,6.83
2023-04-28T15:34:52.910Z,5.43
2023-04-28T15:37:43.247Z,5.73
2023-04-28T15:40:12.768Z,7.43
2023-04-28T15:42:42.262Z,7.10
2023-04-28T15:45:12.013Z,5.10
2023-04-28T15:47:42.837Z,3.63
2023-04-28T15:50:12.362Z,9.97
2023-04-28T15:52:46.171Z,10.60
2023-04-28T15:55:15.148Z,5.37
2023-04-28T15:57:44.380Z,16.53
2023-04-28T16:00:14.866Z,17.27
2023-04-28T16:02:45.365Z,8.73
2023-04-28T16:05:14.124Z,6.57
2023-04-28T16:07:42.607Z,6.67
2023-04-28T16:10:12.491Z,16.93
2023-04-28T16:12:41.917Z,10.37
2023-04-28T16:15:12.899Z,9.40
2023-04-28T16:17:42.455Z,11.30
2023-04-28T16:20:12.930Z,8.40
2023-04-28T16:22:42.193Z,13.50
2023-04-28T16:25:11.525Z,11.17
2023-04-28T16:27:41.361Z,8.43
2023-04-28T16:30:10.628Z,8.50
2023-04-28T16:32:40.521Z,9.70
2023-04-28T16:35:14.526Z,12.43
2023-04-28T16:37:45.106Z,7.23
2023-04-28T16:40:14.199Z,7.33
2023-04-28T16:42:43.555Z,9.13
2023-04-28T16:45:13.146Z,7.40
2023-04-28T16:47:43.767Z,13.13
2023-04-28T16:50:14.532Z,7.67
2023-04-28T16:52:44.167Z,9.47
2023-04-28T16:55:12.610Z,5.80
2023-04-28T16:57:41.529Z,4.90
2023-04-28T17:00:11.293Z,5.00
2023-04-28T17:02:39.588Z,7.83
2023-04-28T17:05:08.616Z,7.60
2023-04-28T17:07:36.901Z,7.23
2023-04-28T17:10:10.220Z,7.70
2023-04-28T17:12:39.714Z,12.03
2023-04-28T17:15:09.454Z,9.77
2023-04-28T17:17:37.861Z,9.53
2023-04-28T17:20:07.017Z,12.50
2023-04-28T17:22:35.894Z,8.43
2023-04-28T17:25:04.573Z,13.63
2023-04-28T17:27:34.670Z,9.60
2023-04-28T17:30:02.892Z,12.40
2023-04-28T17:32:33.302Z,8.90
2023-04-28T17:35:01.546Z,8.10
2023-04-28T17:37:30.903Z,8.17
2023-04-28T17:39:59.416Z,6.63
2023-04-28T17:42:30.996Z,4.90
2023-04-28T17:45:01.686Z,5.27
2023-04-28T17:47:29.803Z,17.80
2023-04-28T17:49:58.122Z,6.13
2023-04-28T17:52:26.468Z,7.63
2023-04-28T17:54:54.783Z,6.83
2023-04-28T17:57:23.005Z,7.30
2023-04-28T17:59:51.424Z,12.07
2023-04-28T18:02:21.582Z,5.50
2023-04-28T18:04:50.784Z,4.33
2023-04-28T18:07:19.336Z,5.93
2023-04-28T18:09:47.533Z,8.50
2023-04-28T18:12:15.776Z,3.83
2023-04-28T18:14:44.382Z,4.77
2023-04-28T18:17:12.810Z,4.90
2023-04-28T18:19:42.370Z,4.00
2023-04-28T18:22:10.528Z,4.57
2023-04-28T18:24:38.747Z,2.80
2023-04-28T18:27:07.246Z,4.33
2023-04-28T18:29:35.413Z,4.03
2023-04-28T18:32:03.667Z,5.37
2023-04-28T18:34:31.863Z,3.80
2023-04-28T18:37:01.491Z,2.10
2023-04-28T18:39:29.620Z,3.60
2023-04-28T18:41:58.889Z,2.93
2023-04-28T18:44:27.255Z,3.57
2023-04-28T18:46:55.645Z,2.80
2023-04-28T18:49:24.855Z,3.93
2023-04-28T18:51:53.101Z,6.93
2023-04-28T18:54:22.815Z,9.93
2023-04-28T18:56:52.565Z,11.70
2023-04-28T18:59:21.057Z,12.33
2023-04-28T19:01:49.505Z,13.70
2023-04-28T19:04:17.860Z,8.97
2023-04-28T19:06:46.231Z,10.20
2023-04-28T19:09:14.525Z,10.40
2023-04-28T19:11:44.120Z,9.57
2023-04-28T19:14:12.256Z,8.40
2023-04-28T19:16:40.387Z,8.10
2023-04-28T19:19:09.692Z,12.80
2023-04-28T19:21:44.453Z,5.20
2023-04-28T19:24:12.737Z,6.67
2023-04-28T19:26:41.413Z,5.17
2023-04-28T19:29:13.980Z,7.03
2023-04-28T19:31:42.116Z,7.93
2023-04-28T19:34:10.366Z,4.33
2023-04-28T19:36:38.724Z,3.40
2023-04-28T19:39:08.312Z,4.13
2023-04-28T19:41:36.984Z,2.97
2023-04-28T19:44:05.437Z,6.33
2023-04-28T19:46:35.912Z,3.60
2023-04-28T19:49:04.256Z,3.47
2023-04-28T19:51:33.023Z,4.57
2023-04-28T19:54:01.410Z,3.83
2023-04-28T19:56:30.287Z,4.47
2023-04-28T19:58:58.760Z,3.50
2023-04-28T20:01:27.074Z,9.20
2023-04-28T20:03:56.907Z,6.80
2023-04-28T20:06:25.160Z,5.00
2023-04-28T20:08:53.424Z,3.47
2023-04-28T20:11:21.564Z,4.53
2023-04-28T20:13:49.723Z,6.13
2023-04-28T20:16:20.319Z,6.70
2023-04-28T20:18:48.793Z,7.83
2023-04-28T20:21:19.130Z,8.40
2023-04-28T20:23:49.583Z,6.23
2023-04-28T20:26:17.891Z,12.00
2023-04-28T20:28:48.520Z,12.33
2023-04-28T20:31:16.886Z,7.57
2023-04-28T20:33:45.185Z,8.00
2023-04-28T20:36:14.128Z,5.10
2023-04-28T20:38:44.013Z,5.07
2023-04-28T20:41:12.544Z,6.23
2023-04-28T20:43:41.471Z,5.73
2023-04-28T20:46:11.357Z,5.20
2023-04-28T20:48:39.615Z,4.70
2023-04-28T20:51:08.115Z,9.47
2023-04-28T20:53:36.610Z,5.00
2023-04-28T20:56:06.401Z,7.30
2023-04-28T20:58:35.436Z,7.97
2023-04-28T21:01:03.637Z,6.87
2023-04-28T21:03:32.001Z,9.90
2023-04-28T21:06:00.473Z,7.87
2023-04-28T21:08:29.776Z,4.93
2023-04-28T21:10:58.311Z,5.40
2023-04-28T21:13:27.874Z,14.93
2023-04-28T21:15:56.276Z,8.80
2023-04-28T21:18:24.472Z,6.27
2023-04-28T21:20:54.722Z,9.13
2023-04-28T21:23:22.975Z,8.53
2023-04-28T21:25:51.242Z,3.70
2023-04-28T21:28:19.420Z,3.83
2023-04-28T21:30:52.630Z,7.03
2023-04-28T21:33:22.168Z,4.10
2023-04-28T21:35:51.016Z,6.80
2023-04-28T21:38:19.238Z,7.00
2023-04-28T21:40:48.054Z,4.73
2023-04-28T21:43:16.499Z,7.00
2023-04-28T21:45:45.105Z,8.57
2023-04-28T21:48:16.333Z,7.07
2023-04-28T21:50:44.685Z,5.27
2023-04-28T21:53:13.226Z,7.70
2023-04-28T21:55:41.982Z,4.27
2023-04-28T21:58:10.352Z,4.70
2023-04-28T22:00:40.638Z,5.37
2023-04-28T22:03:09.123Z,5.30
2023-04-28T22:05:38.840Z,4.57
2023-04-28T22:08:07.153Z,4.27
2023-04-28T22:10:36.443Z,4.73
2023-04-28T22:13:05.233Z,2.10
2023-04-28T22:15:33.596Z,3.80
2023-04-28T22:18:01.940Z,3.17
2023-04-28T22:20:30.407Z,3.40
2023-04-28T22:23:00.510Z,2.97
2023-04-28T22:25:28.921Z,2.53
2023-04-28T22:27:57.108Z,6.63
2023-04-28T22:30:26.311Z,3.47
2023-04-28T22:32:54.689Z,5.13
2023-04-28T22:35:22.916Z,3.40
2023-04-28T22:37:51.202Z,3.77
2023-04-28T22:40:21.731Z,6.60
2023-04-28T22:42:50.228Z,3.10
2023-04-28T22:45:18.747Z,2.40
2023-04-28T22:47:47.097Z,14.63
2023-04-28T22:50:15.213Z,4.27
2023-04-28T22:52:43.332Z,3.63
2023-04-28T22:55:12.703Z,6.37
2023-04-28T22:57:42.397Z,3.90
2023-04-28T23:00:11.732Z,2.70
2023-04-28T23:02:39.929Z,6.90
2023-04-28T23:05:08.615Z,8.27
2023-04-28T23:07:37.095Z,5.20
2023-04-28T23:10:06.927Z,8.00
2023-04-28T23:12:35.530Z,14.63
2023-04-28T23:15:06.112Z,7.43
2023-04-28T23:17:34.344Z,7.70
2023-04-28T23:20:02.520Z,13.20
2023-04-28T23:22:30.649Z,6.83
2023-04-28T23:24:58.865Z,5.33
2023-04-28T23:27:38.014Z,6.57
2023-04-28T23:30:09.725Z,8.20
2023-04-28T23:32:38.743Z,7.50
2023-04-28T23:35:07.355Z,13.20
2023-04-28T23:37:35.697Z,20.87
2023-04-28T23:40:04.244Z,11.23
2023-04-28T23:42:32.520Z,13.40
2023-04-28T23:45:01.485Z,13.53
2023-04-28T23:47:31.069Z,15.67
2023-04-28T23:49:59.264Z,12.80
2023-04-28T23:52:27.446Z,14.30
2023-04-28T23:54:55.659Z,17.23
2023-04-28T23:57:24.136Z,15.83
2023-04-28T23:59:52.610Z,15.70
